sensor_id;sensor_type;location;lat;lon;timestamp;pressure;altitude;pressure_sealevel;temperature;humidity
57234;BME280;43090;52.604;13.318;2023-08-08T00:01:05;100354.19;;;14.33;70.57
57234;BME280;43090;52.604;13.318;2023-08-08T00:03:32;100363.25;;;14.32;70.40
57234;BME280;43090;52.604;13.318;2023-08-08T00:05:59;100365.38;;;14.39;70.73
57234;BME280;43090;52.604;13.318;2023-08-08T00:08:25;100384.81;;;14.42;71.68
57234;BME280;43090;52.604;13.318;2023-08-08T00:10:52;100384.53;;;14.26;71.07
57234;BME280;43090;52.604;13.318;2023-08-08T00:13:19;100369.22;;;14.16;71.70
57234;BME280;43090;52.604;13.318;2023-08-08T00:15:45;100392.75;;;14.24;71.95
57234;BME280;43090;52.604;13.318;2023-08-08T00:18:12;100376.03;;;14.30;71.02
57234;BME280;43090;52.604;13.318;2023-08-08T00:20:39;100349.53;;;13.96;72.06
57234;BME280;43090;52.604;13.318;2023-08-08T00:23:06;100361.28;;;14.15;71.81
57234;BME280;43090;52.604;13.318;2023-08-08T00:25:35;100380.41;;;14.22;71.56
57234;BME280;43090;52.604;13.318;2023-08-08T00:28:03;100357.19;;;14.01;73.54
57234;BME280;43090;52.604;13.318;2023-08-08T00:30:33;100362.13;;;14.06;72.23
57234;BME280;43090;52.604;13.318;2023-08-08T00:32:59;100371.47;;;14.11;72.19
57234;BME280;43090;52.604;13.318;2023-08-08T00:35:26;100390.19;;;14.03;72.44
57234;BME280;43090;52.604;13.318;2023-08-08T00:37:52;100411.75;;;14.13;72.83
57234;BME280;43090;52.604;13.318;2023-08-08T00:40:19;100380.44;;;14.31;73.20
57234;BME280;43090;52.604;13.318;2023-08-08T00:42:46;100385.22;;;14.08;72.31
57234;BME280;43090;52.604;13.318;2023-08-08T00:45:12;100386.47;;;13.94;74.18
57234;BME280;43090;52.604;13.318;2023-08-08T00:47:39;100397.13;;;13.96;73.19
57234;BME280;43090;52.604;13.318;2023-08-08T00:50:06;100354.97;;;13.56;74.29
57234;BME280;43090;52.604;13.318;2023-08-08T00:52:33;100390.75;;;13.87;73.32
57234;BME280;43090;52.604;13.318;2023-08-08T00:55:00;100374.59;;;13.87;73.25
57234;BME280;43090;52.604;13.318;2023-08-08T00:57:28;100375.56;;;13.86;73.45
57234;BME280;43090;52.604;13.318;2023-08-08T00:59:54;100380.28;;;14.13;72.92
57234;BME280;43090;52.604;13.318;2023-08-08T01:02:21;100359.38;;;13.66;72.59
57234;BME280;43090;52.604;13.318;2023-08-08T01:04:48;100389.34;;;14.03;73.31
57234;BME280;43090;52.604;13.318;2023-08-08T01:09:47;100387.06;;;13.88;73.13
57234;BME280;43090;52.604;13.318;2023-08-08T01:12:15;100376.56;;;13.85;72.33
57234;BME280;43090;52.604;13.318;2023-08-08T01:14:42;100382.66;;;13.87;72.76
57234;BME280;43090;52.604;13.318;2023-08-08T01:17:10;100393.16;;;14.00;71.51
57234;BME280;43090;52.604;13.318;2023-08-08T01:19:38;100373.41;;;13.70;71.54
57234;BME280;43090;52.604;13.318;2023-08-08T01:22:23;100382.63;;;13.68;71.43
57234;BME280;43090;52.604;13.318;2023-08-08T01:24:52;100365.50;;;13.69;71.30
57234;BME280;43090;52.604;13.318;2023-08-08T01:27:19;100392.00;;;13.73;72.59
57234;BME280;43090;52.604;13.318;2023-08-08T01:29:46;100361.25;;;13.76;72.21
57234;BME280;43090;52.604;13.318;2023-08-08T01:32:12;100383.50;;;13.68;71.28
57234;BME280;43090;52.604;13.318;2023-08-08T01:34:42;100355.56;;;13.49;71.93
57234;BME280;43090;52.604;13.318;2023-08-08T01:51:39;100365.56;;;13.38;73.51
57234;BME280;43090;52.604;13.318;2023-08-08T01:54:12;100363.72;;;13.38;71.47
57234;BME280;43090;52.604;13.318;2023-08-08T01:56:42;100376.97;;;13.71;70.76
57234;BME280;43090;52.604;13.318;2023-08-08T01:59:09;100370.59;;;13.62;70.33
57234;BME280;43090;52.604;13.318;2023-08-08T02:01:36;100373.72;;;13.77;69.13
57234;BME280;43090;52.604;13.318;2023-08-08T02:04:03;100360.41;;;13.65;69.98
57234;BME280;43090;52.604;13.318;2023-08-08T02:06:31;100347.88;;;13.45;69.50
57234;BME280;43090;52.604;13.318;2023-08-08T02:08:58;100334.34;;;13.56;69.65
57234;BME280;43090;52.604;13.318;2023-08-08T02:11:24;100349.25;;;13.80;69.10
57234;BME280;43090;52.604;13.318;2023-08-08T02:13:51;100355.47;;;13.90;68.53
57234;BME280;43090;52.604;13.318;2023-08-08T02:16:18;100355.16;;;13.74;68.72
57234;BME280;43090;52.604;13.318;2023-08-08T02:18:44;100373.84;;;13.75;68.70
57234;BME280;43090;52.604;13.318;2023-08-08T02:21:11;100362.25;;;13.94;70.08
57234;BME280;43090;52.604;13.318;2023-08-08T02:23:38;100367.25;;;13.99;69.45
57234;BME280;43090;52.604;13.318;2023-08-08T02:26:04;100360.94;;;13.59;70.54
57234;BME280;43090;52.604;13.318;2023-08-08T02:28:31;100345.50;;;13.52;69.88
57234;BME280;43090;52.604;13.318;2023-08-08T02:30:57;100334.28;;;13.37;70.51
57234;BME280;43090;52.604;13.318;2023-08-08T02:33:28;100351.63;;;13.93;69.67
57234;BME280;43090;52.604;13.318;2023-08-08T02:35:55;100336.59;;;13.51;69.55
57234;BME280;43090;52.604;13.318;2023-08-08T02:38:22;100366.31;;;13.59;70.89
57234;BME280;43090;52.604;13.318;2023-08-08T02:40:49;100340.00;;;13.73;71.34
57234;BME280;43090;52.604;13.318;2023-08-08T02:43:15;100356.47;;;13.89;69.88
57234;BME280;43090;52.604;13.318;2023-08-08T02:45:43;100336.59;;;13.61;70.19
57234;BME280;43090;52.604;13.318;2023-08-08T02:48:10;100345.72;;;13.89;69.94
57234;BME280;43090;52.604;13.318;2023-08-08T02:50:37;100318.31;;;13.45;70.56
57234;BME280;43090;52.604;13.318;2023-08-08T02:53:04;100356.59;;;13.78;71.73
57234;BME280;43090;52.604;13.318;2023-08-08T02:55:32;100349.19;;;13.60;72.16
57234;BME280;43090;52.604;13.318;2023-08-08T02:57:59;100339.16;;;13.72;70.72
57234;BME280;43090;52.604;13.318;2023-08-08T03:00:25;100362.47;;;13.42;73.65
57234;BME280;43090;52.604;13.318;2023-08-08T03:02:52;100323.19;;;13.30;73.38
57234;BME280;43090;52.604;13.318;2023-08-08T03:05:19;100355.16;;;13.83;73.16
57234;BME280;43090;52.604;13.318;2023-08-08T03:07:45;100331.41;;;13.28;74.82
57234;BME280;43090;52.604;13.318;2023-08-08T03:10:12;100341.13;;;13.60;73.93
57234;BME280;43090;52.604;13.318;2023-08-08T03:12:39;100327.22;;;13.45;73.84
57234;BME280;43090;52.604;13.318;2023-08-08T03:15:06;100336.44;;;13.43;74.32
57234;BME280;43090;52.604;13.318;2023-08-08T03:17:33;100349.34;;;13.69;75.08
57234;BME280;43090;52.604;13.318;2023-08-08T03:20:04;100331.59;;;13.37;75.65
57234;BME280;43090;52.604;13.318;2023-08-08T03:22:38;100357.94;;;13.43;75.30
57234;BME280;43090;52.604;13.318;2023-08-08T03:25:12;100329.09;;;13.14;77.11
57234;BME280;43090;52.604;13.318;2023-08-08T03:27:39;100339.81;;;13.45;76.28
57234;BME280;43090;52.604;13.318;2023-08-08T03:30:06;100354.56;;;13.20;76.99
57234;BME280;43090;52.604;13.318;2023-08-08T03:32:33;100327.41;;;13.23;77.39
57234;BME280;43090;52.604;13.318;2023-08-08T03:34:59;100340.78;;;13.44;77.72
57234;BME280;43090;52.604;13.318;2023-08-08T03:37:26;100350.63;;;13.74;76.98
57234;BME280;43090;52.604;13.318;2023-08-08T03:39:53;100359.28;;;13.78;76.93
57234;BME280;43090;52.604;13.318;2023-08-08T03:42:19;100344.41;;;13.23;78.89
57234;BME280;43090;52.604;13.318;2023-08-08T03:44:46;100331.78;;;13.14;78.75
57234;BME280;43090;52.604;13.318;2023-08-08T03:47:13;100343.91;;;13.39;78.60
57234;BME280;43090;52.604;13.318;2023-08-08T03:49:45;100366.13;;;13.92;77.65
57234;BME280;43090;52.604;13.318;2023-08-08T03:52:12;100343.69;;;13.72;77.43
57234;BME280;43090;52.604;13.318;2023-08-08T03:54:39;100344.81;;;13.69;78.20
57234;BME280;43090;52.604;13.318;2023-08-08T03:57:06;100368.06;;;13.80;76.60
57234;BME280;43090;52.604;13.318;2023-08-08T03:59:36;100342.00;;;13.30;79.78
57234;BME280;43090;52.604;13.318;2023-08-08T04:02:03;100350.19;;;13.49;78.66
57234;BME280;43090;52.604;13.318;2023-08-08T04:04:31;100339.13;;;13.62;77.64
57234;BME280;43090;52.604;13.318;2023-08-08T04:06:58;100363.41;;;13.92;77.71
57234;BME280;43090;52.604;13.318;2023-08-08T04:09:25;100327.41;;;13.63;78.42
57234;BME280;43090;52.604;13.318;2023-08-08T04:11:51;100368.63;;;13.64;79.02
57234;BME280;43090;52.604;13.318;2023-08-08T04:14:18;100344.41;;;13.33;80.08
57234;BME280;43090;52.604;13.318;2023-08-08T04:16:44;100345.81;;;13.27;80.50
57234;BME280;43090;52.604;13.318;2023-08-08T04:19:11;100314.78;;;13.44;79.81
57234;BME280;43090;52.604;13.318;2023-08-08T04:21:38;100328.38;;;13.43;79.90
57234;BME280;43090;52.604;13.318;2023-08-08T04:24:05;100359.16;;;13.89;79.19
57234;BME280;43090;52.604;13.318;2023-08-08T04:26:34;100350.78;;;13.63;79.20
57234;BME280;43090;52.604;13.318;2023-08-08T04:29:31;100372.03;;;13.86;78.93
57234;BME280;43090;52.604;13.318;2023-08-08T04:31:59;100341.09;;;13.41;79.78
57234;BME280;43090;52.604;13.318;2023-08-08T04:34:26;100345.06;;;13.46;80.23
57234;BME280;43090;52.604;13.318;2023-08-08T04:36:53;100364.38;;;13.61;79.70
57234;BME280;43090;52.604;13.318;2023-08-08T04:39:19;100361.44;;;14.04;78.02
57234;BME280;43090;52.604;13.318;2023-08-08T04:41:46;100336.63;;;13.71;79.20
57234;BME280;43090;52.604;13.318;2023-08-08T04:44:12;100355.34;;;13.92;79.78
57234;BME280;43090;52.604;13.318;2023-08-08T04:46:39;100352.44;;;13.54;80.30
57234;BME280;43090;52.604;13.318;2023-08-08T04:49:06;100347.78;;;13.66;80.29
57234;BME280;43090;52.604;13.318;2023-08-08T04:51:33;100323.44;;;13.68;79.96
57234;BME280;43090;52.604;13.318;2023-08-08T04:54:03;100351.34;;;13.76;80.38
57234;BME280;43090;52.604;13.318;2023-08-08T04:56:30;100334.66;;;13.82;79.74
57234;BME280;43090;52.604;13.318;2023-08-08T04:58:56;100343.13;;;13.88;79.34
57234;BME280;43090;52.604;13.318;2023-08-08T05:01:23;100349.25;;;14.09;79.35
57234;BME280;43090;52.604;13.318;2023-08-08T05:03:49;100353.78;;;13.99;80.03
57234;BME280;43090;52.604;13.318;2023-08-08T05:06:20;100325.88;;;14.10;78.57
57234;BME280;43090;52.604;13.318;2023-08-08T05:08:49;100333.81;;;13.92;79.19
57234;BME280;43090;52.604;13.318;2023-08-08T05:11:16;100337.22;;;13.84;79.54
57234;BME280;43090;52.604;13.318;2023-08-08T05:13:43;100353.22;;;14.05;80.01
57234;BME280;43090;52.604;13.318;2023-08-08T05:16:09;100327.84;;;13.78;80.41
57234;BME280;43090;52.604;13.318;2023-08-08T05:18:36;100340.75;;;13.75;79.69
57234;BME280;43090;52.604;13.318;2023-08-08T05:21:02;100356.19;;;14.02;80.53
57234;BME280;43090;52.604;13.318;2023-08-08T05:23:29;100339.88;;;13.94;80.34
57234;BME280;43090;52.604;13.318;2023-08-08T05:25:55;100350.50;;;14.25;80.11
57234;BME280;43090;52.604;13.318;2023-08-08T05:28:22;100351.66;;;14.12;79.83
57234;BME280;43090;52.604;13.318;2023-08-08T05:30:48;100348.81;;;14.04;80.95
57234;BME280;43090;52.604;13.318;2023-08-08T05:33:15;100363.56;;;14.00;82.15
57234;BME280;43090;52.604;13.318;2023-08-08T05:35:42;100344.56;;;13.72;81.39
57234;BME280;43090;52.604;13.318;2023-08-08T05:38:08;100365.81;;;14.05;81.75
57234;BME280;43090;52.604;13.318;2023-08-08T05:40:35;100322.47;;;13.98;80.62
57234;BME280;43090;52.604;13.318;2023-08-08T05:43:04;100329.97;;;14.04;81.13
57234;BME280;43090;52.604;13.318;2023-08-08T05:45:33;100343.84;;;14.39;79.37
57234;BME280;43090;52.604;13.318;2023-08-08T05:48:00;100354.19;;;14.43;79.69
57234;BME280;43090;52.604;13.318;2023-08-08T05:50:27;100347.66;;;14.65;78.47
57234;BME280;43090;52.604;13.318;2023-08-08T05:52:54;100347.53;;;14.18;79.49
57234;BME280;43090;52.604;13.318;2023-08-08T05:55:21;100350.25;;;14.28;79.97
57234;BME280;43090;52.604;13.318;2023-08-08T05:57:48;100364.09;;;14.62;79.04
57234;BME280;43090;52.604;13.318;2023-08-08T06:00:15;100356.56;;;14.56;78.67
57234;BME280;43090;52.604;13.318;2023-08-08T06:02:43;100342.84;;;14.59;79.03
57234;BME280;43090;52.604;13.318;2023-08-08T06:05:10;100359.69;;;14.61;79.50
57234;BME280;43090;52.604;13.318;2023-08-08T06:07:39;100333.50;;;14.44;79.49
57234;BME280;43090;52.604;13.318;2023-08-08T06:10:21;100359.25;;;14.56;79.74
57234;BME280;43090;52.604;13.318;2023-08-08T06:12:50;100337.88;;;14.64;77.85
57234;BME280;43090;52.604;13.318;2023-08-08T06:15:16;100339.00;;;14.72;78.37
57234;BME280;43090;52.604;13.318;2023-08-08T06:17:43;100337.28;;;14.80;78.16
57234;BME280;43090;52.604;13.318;2023-08-08T06:20:10;100356.63;;;15.04;76.97
57234;BME280;43090;52.604;13.318;2023-08-08T06:22:37;100330.03;;;14.81;77.46
57234;BME280;43090;52.604;13.318;2023-08-08T06:25:04;100332.63;;;14.73;77.76
57234;BME280;43090;52.604;13.318;2023-08-08T06:27:30;100349.19;;;14.78;78.11
57234;BME280;43090;52.604;13.318;2023-08-08T06:37:11;100346.56;;;14.96;78.47
57234;BME280;43090;52.604;13.318;2023-08-08T06:44:07;100364.56;;;15.05;77.95
57234;BME280;43090;52.604;13.318;2023-08-08T06:54:20;100370.09;;;15.04;77.72
57234;BME280;43090;52.604;13.318;2023-08-08T06:57:45;100340.75;;;15.01;78.27
57234;BME280;43090;52.604;13.318;2023-08-08T07:01:04;100329.34;;;15.07;78.02
57234;BME280;43090;52.604;13.318;2023-08-08T07:04:06;100364.41;;;15.44;78.13
57234;BME280;43090;52.604;13.318;2023-08-08T07:06:33;100338.41;;;15.43;76.41
57234;BME280;43090;52.604;13.318;2023-08-08T07:09:05;100350.16;;;15.24;75.61
57234;BME280;43090;52.604;13.318;2023-08-08T07:15:27;100354.41;;;15.73;75.45
57234;BME280;43090;52.604;13.318;2023-08-08T07:18:07;100337.22;;;15.74;75.08
57234;BME280;43090;52.604;13.318;2023-08-08T07:24:49;100343.69;;;15.63;74.97
57234;BME280;43090;52.604;13.318;2023-08-08T07:34:36;100355.78;;;16.05;73.84
57234;BME280;43090;52.604;13.318;2023-08-08T07:37:20;100336.81;;;15.96;72.73
57234;BME280;43090;52.604;13.318;2023-08-08T07:39:50;100361.97;;;15.97;71.90
57234;BME280;43090;52.604;13.318;2023-08-08T07:42:19;100360.03;;;16.07;72.62
57234;BME280;43090;52.604;13.318;2023-08-08T07:44:46;100360.19;;;16.24;72.73
57234;BME280;43090;52.604;13.318;2023-08-08T07:47:24;100319.78;;;15.96;72.67
57234;BME280;43090;52.604;13.318;2023-08-08T07:50:20;100322.91;;;16.09;71.09
57234;BME280;43090;52.604;13.318;2023-08-08T07:53:07;100362.16;;;16.58;70.50
57234;BME280;43090;52.604;13.318;2023-08-08T07:56:06;100328.19;;;15.93;72.51
57234;BME280;43090;52.604;13.318;2023-08-08T07:58:37;100344.13;;;16.04;72.36
57234;BME280;43090;52.604;13.318;2023-08-08T08:01:29;100331.72;;;15.93;73.71
57234;BME280;43090;52.604;13.318;2023-08-08T08:03:56;100342.38;;;16.13;72.75
57234;BME280;43090;52.604;13.318;2023-08-08T08:06:28;100354.41;;;16.37;72.78
57234;BME280;43090;52.604;13.318;2023-08-08T08:15:48;100325.50;;;16.81;70.02
57234;BME280;43090;52.604;13.318;2023-08-08T08:18:17;100328.56;;;16.60;70.25
57234;BME280;43090;52.604;13.318;2023-08-08T08:20:48;100330.97;;;16.72;69.56
57234;BME280;43090;52.604;13.318;2023-08-08T08:23:16;100340.78;;;16.73;69.12
57234;BME280;43090;52.604;13.318;2023-08-08T08:25:42;100326.91;;;16.68;69.26
57234;BME280;43090;52.604;13.318;2023-08-08T08:31:34;100345.41;;;16.36;69.49
57234;BME280;43090;52.604;13.318;2023-08-08T08:34:06;100344.97;;;16.41;68.84
57234;BME280;43090;52.604;13.318;2023-08-08T08:36:33;100335.22;;;16.48;70.20
57234;BME280;43090;52.604;13.318;2023-08-08T08:39:02;100331.72;;;16.56;68.70
57234;BME280;43090;52.604;13.318;2023-08-08T08:41:40;100327.16;;;16.56;68.24
57234;BME280;43090;52.604;13.318;2023-08-08T08:48:00;100328.81;;;16.49;69.60
57234;BME280;43090;52.604;13.318;2023-08-08T08:50:47;100356.19;;;16.72;69.23
57234;BME280;43090;52.604;13.318;2023-08-08T08:53:15;100351.22;;;16.41;68.86
57234;BME280;43090;52.604;13.318;2023-08-08T08:55:54;100323.97;;;16.35;69.35
57234;BME280;43090;52.604;13.318;2023-08-08T08:58:40;100347.75;;;16.75;69.66
57234;BME280;43090;52.604;13.318;2023-08-08T09:01:07;100351.69;;;17.15;69.05
57234;BME280;43090;52.604;13.318;2023-08-08T09:07:07;100343.81;;;16.96;67.09
57234;BME280;43090;52.604;13.318;2023-08-08T09:09:36;100319.75;;;17.11;65.55
57234;BME280;43090;52.604;13.318;2023-08-08T09:12:08;100328.09;;;17.26;65.94
57234;BME280;43090;52.604;13.318;2023-08-08T09:14:39;100300.47;;;17.14;66.41
57234;BME280;43090;52.604;13.318;2023-08-08T09:17:11;100322.66;;;17.26;66.77
57234;BME280;43090;52.604;13.318;2023-08-08T09:23:52;100329.06;;;17.17;65.33
57234;BME280;43090;52.604;13.318;2023-08-08T09:26:43;100330.44;;;17.29;66.70
57234;BME280;43090;52.604;13.318;2023-08-08T09:29:15;100327.81;;;17.37;65.36
57234;BME280;43090;52.604;13.318;2023-08-08T09:31:41;100334.97;;;17.63;65.65
57234;BME280;43090;52.604;13.318;2023-08-08T09:34:14;100310.88;;;17.35;66.08
57234;BME280;43090;52.604;13.318;2023-08-08T09:36:47;100331.53;;;17.44;64.93
57234;BME280;43090;52.604;13.318;2023-08-08T09:39:29;100285.59;;;17.10;64.93
57234;BME280;43090;52.604;13.318;2023-08-08T09:42:10;100287.41;;;17.60;65.28
57234;BME280;43090;52.604;13.318;2023-08-08T09:45:43;100306.28;;;17.95;60.42
57234;BME280;43090;52.604;13.318;2023-08-08T09:48:14;100305.13;;;18.14;61.05
57234;BME280;43090;52.604;13.318;2023-08-08T09:50:43;100299.31;;;17.84;60.61
57234;BME280;43090;52.604;13.318;2023-08-08T09:53:16;100273.81;;;17.36;61.04
57234;BME280;43090;52.604;13.318;2023-08-08T09:55:51;100292.47;;;17.55;62.87
57234;BME280;43090;52.604;13.318;2023-08-08T10:09:02;100300.56;;;16.96;77.33
57234;BME280;43090;52.604;13.318;2023-08-08T10:12:13;100304.63;;;17.35;74.14
57234;BME280;43090;52.604;13.318;2023-08-08T10:14:55;100269.59;;;17.33;72.20
57234;BME280;43090;52.604;13.318;2023-08-08T10:36:54;100255.97;;;18.42;62.29
57234;BME280;43090;52.604;13.318;2023-08-08T10:40:00;100277.84;;;18.40;60.93
57234;BME280;43090;52.604;13.318;2023-08-08T10:42:28;100304.44;;;18.04;62.39
57234;BME280;43090;52.604;13.318;2023-08-08T10:45:08;100308.56;;;17.57;63.87
57234;BME280;43090;52.604;13.318;2023-08-08T10:47:39;100323.56;;;17.35;64.81
57234;BME280;43090;52.604;13.318;2023-08-08T10:50:16;100288.63;;;17.07;66.36
57234;BME280;43090;52.604;13.318;2023-08-08T10:53:10;100279.19;;;17.19;65.75
57234;BME280;43090;52.604;13.318;2023-08-08T10:55:37;100309.72;;;17.54;66.23
57234;BME280;43090;52.604;13.318;2023-08-08T10:58:41;100310.47;;;17.73;65.29
57234;BME280;43090;52.604;13.318;2023-08-08T12:05:40;100255.31;;;18.88;58.09
57234;BME280;43090;52.604;13.318;2023-08-08T12:08:17;100255.69;;;18.93;56.82
57234;BME280;43090;52.604;13.318;2023-08-08T12:10:54;100232.72;;;19.12;55.19
57234;BME280;43090;52.604;13.318;2023-08-08T12:13:37;100238.59;;;19.24;55.17
57234;BME280;43090;52.604;13.318;2023-08-08T12:19:52;100253.50;;;19.51;54.66
57234;BME280;43090;52.604;13.318;2023-08-08T12:22:50;100238.34;;;19.34;54.89
57234;BME280;43090;52.604;13.318;2023-08-08T12:25:29;100286.09;;;19.83;53.89
57234;BME280;43090;52.604;13.318;2023-08-08T12:31:32;100235.81;;;19.87;51.67
57234;BME280;43090;52.604;13.318;2023-08-08T12:35:05;100262.31;;;19.76;51.19
57234;BME280;43090;52.604;13.318;2023-08-08T12:37:37;100238.66;;;19.39;51.81
57234;BME280;43090;52.604;13.318;2023-08-08T12:40:05;100219.09;;;19.20;52.48
57234;BME280;43090;52.604;13.318;2023-08-08T12:45:53;100237.00;;;19.84;53.24
57234;BME280;43090;52.604;13.318;2023-08-08T12:48:32;100228.78;;;19.69;53.74
57234;BME280;43090;52.604;13.318;2023-08-08T13:02:28;100282.00;;;18.68;56.60
57234;BME280;43090;52.604;13.318;2023-08-08T13:05:00;100283.88;;;18.67;56.56
57234;BME280;43090;52.604;13.318;2023-08-08T13:07:40;100281.88;;;18.53;55.39
57234;BME280;43090;52.604;13.318;2023-08-08T13:25:39;100270.34;;;19.15;57.86
57234;BME280;43090;52.604;13.318;2023-08-08T13:28:24;100251.78;;;19.27;56.21
57234;BME280;43090;52.604;13.318;2023-08-08T13:34:25;100271.59;;;18.23;59.17
57234;BME280;43090;52.604;13.318;2023-08-08T13:36:55;100268.50;;;18.51;60.96
57234;BME280;43090;52.604;13.318;2023-08-08T13:39:28;100291.88;;;18.36;61.13
57234;BME280;43090;52.604;13.318;2023-08-08T13:41:59;100303.56;;;18.36;61.91
57234;BME280;43090;52.604;13.318;2023-08-08T13:44:43;100320.69;;;18.20;62.16
57234;BME280;43090;52.604;13.318;2023-08-08T13:47:10;100310.19;;;18.09;61.29
57234;BME280;43090;52.604;13.318;2023-08-08T13:49:40;100323.69;;;17.84;64.19
57234;BME280;43090;52.604;13.318;2023-08-08T13:52:08;100321.97;;;17.75;64.49
57234;BME280;43090;52.604;13.318;2023-08-08T14:02:20;100278.00;;;17.97;63.34
57234;BME280;43090;52.604;13.318;2023-08-08T14:04:49;100291.19;;;17.76;59.81
57234;BME280;43090;52.604;13.318;2023-08-08T14:07:17;100293.25;;;18.15;61.07
57234;BME280;43090;52.604;13.318;2023-08-08T14:09:44;100314.41;;;18.53;61.59
57234;BME280;43090;52.604;13.318;2023-08-08T14:12:33;100285.22;;;18.71;59.66
57234;BME280;43090;52.604;13.318;2023-08-08T14:15:03;100289.59;;;18.80;55.90
57234;BME280;43090;52.604;13.318;2023-08-08T14:17:36;100287.91;;;18.79;58.18
57234;BME280;43090;52.604;13.318;2023-08-08T14:20:46;100289.78;;;18.79;58.21
57234;BME280;43090;52.604;13.318;2023-08-08T14:23:42;100276.69;;;18.99;57.67
57234;BME280;43090;52.604;13.318;2023-08-08T14:26:24;100299.06;;;19.41;58.02
57234;BME280;43090;52.604;13.318;2023-08-08T14:28:51;100282.78;;;19.33;56.53
57234;BME280;43090;52.604;13.318;2023-08-08T14:31:18;100296.72;;;19.29;56.23
57234;BME280;43090;52.604;13.318;2023-08-08T14:33:48;100294.28;;;19.43;57.30
57234;BME280;43090;52.604;13.318;2023-08-08T14:36:31;100306.13;;;19.50;56.20
57234;BME280;43090;52.604;13.318;2023-08-08T14:39:05;100302.84;;;19.31;57.27
57234;BME280;43090;52.604;13.318;2023-08-08T14:41:54;100272.13;;;18.91;56.03
57234;BME280;43090;52.604;13.318;2023-08-08T14:45:53;100326.91;;;18.70;55.00
57234;BME280;43090;52.604;13.318;2023-08-08T14:48:16;100336.75;;;18.46;58.71
57234;BME280;43090;52.604;13.318;2023-08-08T14:50:57;100331.00;;;18.41;58.85
57234;BME280;43090;52.604;13.318;2023-08-08T14:53:38;100322.38;;;18.29;59.74
57234;BME280;43090;52.604;13.318;2023-08-08T14:56:05;100336.72;;;17.89;61.02
57234;BME280;43090;52.604;13.318;2023-08-08T14:58:32;100338.50;;;17.55;58.71
57234;BME280;43090;52.604;13.318;2023-08-08T15:01:02;100337.50;;;17.64;58.64
57234;BME280;43090;52.604;13.318;2023-08-08T15:03:28;100342.13;;;17.29;57.50
57234;BME280;43090;52.604;13.318;2023-08-08T15:05:55;100337.03;;;17.26;59.90
57234;BME280;43090;52.604;13.318;2023-08-08T15:08:22;100344.22;;;17.44;61.73
57234;BME280;43090;52.604;13.318;2023-08-08T15:10:51;100334.44;;;17.59;62.66
57234;BME280;43090;52.604;13.318;2023-08-08T15:13:17;100334.59;;;17.49;60.90
57234;BME280;43090;52.604;13.318;2023-08-08T15:15:44;100340.25;;;17.73;61.75
57234;BME280;43090;52.604;13.318;2023-08-08T15:18:10;100330.78;;;17.77;62.30
57234;BME280;43090;52.604;13.318;2023-08-08T15:20:37;100361.22;;;17.79;62.74
57234;BME280;43090;52.604;13.318;2023-08-08T15:23:03;100417.69;;;17.57;65.53
57234;BME280;43090;52.604;13.318;2023-08-08T15:25:30;100442.59;;;17.00;68.69
57234;BME280;43090;52.604;13.318;2023-08-08T15:27:56;100428.78;;;16.13;77.36
57234;BME280;43090;52.604;13.318;2023-08-08T15:30:23;100405.06;;;15.61;82.74
57234;BME280;43090;52.604;13.318;2023-08-08T15:32:49;100414.03;;;16.07;81.81
57234;BME280;43090;52.604;13.318;2023-08-08T15:35:16;100403.31;;;16.33;81.69
57234;BME280;43090;52.604;13.318;2023-08-08T15:37:43;100409.97;;;16.21;84.05
57234;BME280;43090;52.604;13.318;2023-08-08T15:40:09;100416.44;;;16.28;83.42
57234;BME280;43090;52.604;13.318;2023-08-08T15:42:38;100412.56;;;16.31;83.82
57234;BME280;43090;52.604;13.318;2023-08-08T15:45:07;100418.19;;;16.38;83.40
57234;BME280;43090;52.604;13.318;2023-08-08T15:47:34;100397.63;;;16.19;85.04
57234;BME280;43090;52.604;13.318;2023-08-08T15:50:00;100400.53;;;16.25;85.20
57234;BME280;43090;52.604;13.318;2023-08-08T15:52:27;100389.38;;;16.02;87.69
57234;BME280;43090;52.604;13.318;2023-08-08T15:54:53;100381.78;;;15.88;89.63
57234;BME280;43090;52.604;13.318;2023-08-08T15:57:20;100368.91;;;15.99;90.41
57234;BME280;43090;52.604;13.318;2023-08-08T15:59:46;100356.09;;;16.02;90.91
57234;BME280;43090;52.604;13.318;2023-08-08T16:02:13;100357.41;;;16.15;87.85
57234;BME280;43090;52.604;13.318;2023-08-08T16:04:43;100368.91;;;16.36;87.31
57234;BME280;43090;52.604;13.318;2023-08-08T16:07:09;100358.03;;;16.27;87.69
57234;BME280;43090;52.604;13.318;2023-08-08T16:09:36;100365.34;;;16.35;89.92
57234;BME280;43090;52.604;13.318;2023-08-08T16:12:02;100362.03;;;16.05;86.60
57234;BME280;43090;52.604;13.318;2023-08-08T16:14:29;100381.84;;;16.14;88.68
57234;BME280;43090;52.604;13.318;2023-08-08T16:16:55;100377.63;;;16.11;89.47
57234;BME280;43090;52.604;13.318;2023-08-08T16:19:22;100395.91;;;16.36;87.82
57234;BME280;43090;52.604;13.318;2023-08-08T16:21:48;100406.97;;;16.06;88.25
57234;BME280;43090;52.604;13.318;2023-08-08T16:24:15;100420.72;;;15.57;88.61
57234;BME280;43090;52.604;13.318;2023-08-08T16:26:41;100430.41;;;15.12;92.10
57234;BME280;43090;52.604;13.318;2023-08-08T16:29:08;100429.66;;;15.20;91.10
57234;BME280;43090;52.604;13.318;2023-08-08T16:31:37;100451.09;;;15.12;94.18
57234;BME280;43090;52.604;13.318;2023-08-08T16:34:05;100440.72;;;15.27;93.57
57234;BME280;43090;52.604;13.318;2023-08-08T16:36:31;100425.75;;;14.85;94.19
57234;BME280;43090;52.604;13.318;2023-08-08T16:38:58;100430.75;;;14.90;95.97